Time;durP1;ratioP1;P1;durP2;ratioP2;P2;SDS_P1;SDS_P2;PMS_P1;PMS_P2;Temp;Humidity;BMP_temperature;BMP_pressure;BME280_temperature;BME280_humidity;BME280_pressure;Samples;Min_cycle;Max_cycle;Signal;HPM_P1;HPM_P2
2023/07/10 00:01:03;;;;;;;1.08;0.88;;;;;;;23.05;51.46;100242.34;4405494;32;33183;-83
2023/07/10 00:03:32;;;;;;;1.02;0.40;;;;;;;23.16;51.10;100239.53;4428461;32;34061;-83
2023/07/10 00:06:00;;;;;;;0.62;0.55;;;;;;;23.07;51.13;100243.03;4429657;32;33601;-83
2023/07/10 00:08:28;;;;;;;0.60;0.60;;;;;;;23.05;51.31;100241.50;4405835;32;33037;-83
2023/07/10 00:10:57;;;;;;;1.52;1.33;;;;;;;23.10;51.16;100239.25;4408507;32;32776;-83
2023/07/10 00:13:25;;;;;;;2.85;0.47;;;;;;;23.13;50.86;100242.53;4417484;32;33651;-83
2023/07/10 00:15:54;;;;;;;0.85;0.85;;;;;;;23.02;51.12;100237.22;4416504;32;33859;-83
2023/07/10 00:18:22;;;;;;;0.98;0.95;;;;;;;23.02;51.18;100241.75;4415573;32;33053;-83
2023/07/10 00:20:50;;;;;;;0.68;0.68;;;;;;;22.94;51.38;100245.16;4416572;32;34842;-83
2023/07/10 00:23:18;;;;;;;0.80;0.43;;;;;;;22.78;52.03;100242.06;4414802;32;32118;-83
2023/07/10 00:25:46;;;;;;;0.15;0.15;;;;;;;22.79;52.06;100241.94;4410222;32;33879;-83
2023/07/10 00:28:19;;;;;;;0.50;0.50;;;;;;;22.85;51.93;100245.94;4426612;32;34392;-83
2023/07/10 00:30:48;;;;;;;0.90;0.70;;;;;;;22.78;51.71;100240.22;4403804;32;32798;-83
2023/07/10 00:33:18;;;;;;;2.85;0.82;;;;;;;22.73;51.92;100248.69;4403236;32;32694;-83
2023/07/10 00:35:46;;;;;;;0.57;0.57;;;;;;;22.82;51.72;100249.72;4427996;32;33261;-83
2023/07/10 00:38:20;;;;;;;0.30;0.30;;;;;;;22.83;51.41;100242.50;4399931;32;33700;-83
2023/07/10 00:40:47;;;;;;;0.65;0.65;;;;;;;22.96;50.98;100246.69;4409552;32;33035;-83
2023/07/10 00:43:29;;;;;;;0.13;0.13;;;;;;;22.90;51.01;100247.25;4402409;32;33958;-83
2023/07/10 00:46:01;;;;;;;0.28;0.28;;;;;;;22.88;51.10;100245.62;4414389;32;33189;-83
2023/07/10 00:48:43;;;;;;;1.37;1.12;;;;;;;22.90;50.97;100239.16;4401398;32;32184;-83
2023/07/10 00:51:26;;;;;;;0.57;0.57;;;;;;;22.88;51.33;100242.94;4415004;32;34077;-83
2023/07/10 00:53:54;;;;;;;0.50;0.50;;;;;;;22.81;51.50;100244.47;4415505;32;33575;-83
2023/07/10 00:56:22;;;;;;;0.43;0.43;;;;;;;22.83;51.54;100234.41;4401115;32;33940;-83
2023/07/10 00:58:50;;;;;;;0.73;0.50;;;;;;;22.76;51.87;100236.81;4407611;32;32492;-83
2023/07/10 01:01:23;;;;;;;1.23;0.82;;;;;;;22.75;51.84;100246.72;4415264;32;33828;-83
2023/07/10 01:03:52;;;;;;;3.70;1.08;;;;;;;22.71;52.25;100237.22;4403632;32;32146;-83
2023/07/10 01:06:21;;;;;;;0.70;0.70;;;;;;;22.51;53.03;100238.09;4414269;32;32334;-83
2023/07/10 01:08:53;;;;;;;2.83;1.17;;;;;;;22.63;52.67;100242.41;4401529;32;32627;-83
2023/07/10 01:11:20;;;;;;;1.52;1.05;;;;;;;22.61;52.65;100244.37;4428287;32;34063;-83
2023/07/10 01:13:50;;;;;;;2.37;0.68;;;;;;;22.57;52.64;100242.94;4415024;32;34350;-83
2023/07/10 01:16:18;;;;;;;0.10;0.10;;;;;;;22.47;53.09;100247.41;4410485;32;33078;-83
2023/07/10 01:18:48;;;;;;;0.77;0.77;;;;;;;22.54;52.73;100237.81;4403203;32;32929;-83
2023/07/10 01:21:32;;;;;;;2.15;0.75;;;;;;;22.34;53.43;100239.53;4400373;32;32945;-83
2023/07/10 01:24:02;;;;;;;2.65;0.90;;;;;;;22.59;52.73;100238.28;4402390;32;32533;-83
2023/07/10 01:26:30;;;;;;;2.00;1.45;;;;;;;22.41;53.26;100239.88;4412298;32;34826;-83
2023/07/10 01:28:58;;;;;;;1.20;1.02;;;;;;;22.46;53.32;100234.97;4413674;32;32126;-83
2023/07/10 01:31:28;;;;;;;1.62;0.57;;;;;;;22.51;53.16;100238.09;4412986;32;34947;-83
2023/07/10 01:34:02;;;;;;;0.73;0.57;;;;;;;22.27;53.74;100243.75;4429496;32;33582;-83
2023/07/10 01:36:36;;;;;;;0.88;0.88;;;;;;;22.16;54.24;100244.66;4426132;32;33719;-83
2023/07/10 01:39:10;;;;;;;1.25;0.68;;;;;;;22.15;54.22;100242.94;4415475;32;32575;-83
2023/07/10 01:41:40;;;;;;;2.95;0.60;;;;;;;22.14;54.33;100249.31;4427558;32;33825;-83
2023/07/10 01:44:22;;;;;;;0.88;0.88;;;;;;;22.19;54.16;100244.41;4404016;32;33439;-83
2023/07/10 01:46:51;;;;;;;1.33;1.23;;;;;;;22.20;54.09;100251.47;4418616;32;33165;-83
2023/07/10 01:49:26;;;;;;;2.28;0.45;;;;;;;22.10;54.19;100238.91;4416650;32;34045;-83
2023/07/10 01:51:58;;;;;;;1.70;1.02;;;;;;;22.17;54.14;100241.00;4406097;32;33771;-83
2023/07/10 01:54:25;;;;;;;0.77;0.77;;;;;;;22.13;54.16;100242.25;4428682;32;32511;-83
2023/07/10 01:56:53;;;;;;;1.20;0.60;;;;;;;22.00;54.61;100233.47;4401871;32;33216;-83
2023/07/10 01:59:21;;;;;;;0.37;0.37;;;;;;;21.94;54.80;100234.00;4429541;32;34024;-83
2023/07/10 02:01:49;;;;;;;0.70;0.57;;;;;;;22.12;54.05;100235.12;4410738;32;34222;-83
2023/07/10 02:04:17;;;;;;;0.10;0.10;;;;;;;22.08;54.01;100238.22;4413520;32;33424;-83
2023/07/10 02:06:44;;;;;;;0.30;0.30;;;;;;;22.19;53.56;100238.16;4432799;32;33864;-83
2023/07/10 02:09:12;;;;;;;0.40;0.40;;;;;;;22.12;53.48;100237.81;4410801;32;32588;-83
2023/07/10 02:11:40;;;;;;;1.20;1.00;;;;;;;22.21;53.24;100236.19;4416877;32;32481;-83
2023/07/10 02:14:08;;;;;;;1.20;0.77;;;;;;;22.17;53.15;100230.25;4405931;32;33576;-83
2023/07/10 02:16:36;;;;;;;0.55;0.55;;;;;;;22.11;53.40;100230.75;4414776;32;33255;-83
2023/07/10 02:19:05;;;;;;;0.95;0.95;;;;;;;22.07;53.61;100229.25;4416560;32;33563;-83
2023/07/10 02:21:33;;;;;;;1.15;0.93;;;;;;;22.03;53.78;100230.53;4399275;32;32891;-83
2023/07/10 02:24:00;;;;;;;0.15;0.15;;;;;;;21.97;53.92;100229.19;4427515;32;33538;-83
2023/07/10 02:26:29;;;;;;;0.37;0.37;;;;;;;21.95;53.92;100225.78;4403802;32;34135;-83
2023/07/10 02:28:57;;;;;;;0.85;0.52;;;;;;;22.00;53.79;100233.47;4418343;32;33950;-83
2023/07/10 02:31:26;;;;;;;0.55;0.55;;;;;;;21.99;53.83;100231.78;4415373;32;32283;-83
2023/07/10 02:33:55;;;;;;;0.77;0.75;;;;;;;21.94;53.98;100234.00;4404435;32;33634;-83
2023/07/10 02:36:23;;;;;;;0.62;0.47;;;;;;;21.93;54.06;100232.25;4412633;32;34616;-83
2023/07/10 02:38:53;;;;;;;1.70;0.80;;;;;;;21.87;54.30;100238.16;4415787;32;33913;-83
2023/07/10 02:41:21;;;;;;;0.90;0.52;;;;;;;21.96;54.08;100240.09;4416735;32;34095;-83
2023/07/10 02:43:48;;;;;;;0.30;0.30;;;;;;;21.88;54.33;100234.50;4423361;32;34347;-83
2023/07/10 02:46:18;;;;;;;1.40;1.30;;;;;;;21.87;54.40;100232.78;4405021;32;33861;-83
2023/07/10 02:48:45;;;;;;;0.52;0.52;;;;;;;21.80;54.55;100231.62;4414716;32;33941;-83
2023/07/10 02:51:13;;;;;;;1.77;1.23;;;;;;;21.89;54.12;100231.69;4413226;32;34051;-83
2023/07/10 02:53:42;;;;;;;0.57;0.57;;;;;;;21.88;54.34;100234.50;4402580;32;33959;-83
2023/07/10 02:56:09;;;;;;;0.80;0.75;;;;;;;21.92;54.33;100235.94;4418013;32;33617;-83
2023/07/10 02:58:37;;;;;;;1.20;0.70;;;;;;;21.82;54.70;100235.00;4428322;32;34875;-83
2023/07/10 03:01:04;;;;;;;2.60;0.98;;;;;;;21.83;54.54;100236.72;4428515;32;33829;-83
2023/07/10 03:03:32;;;;;;;1.58;0.82;;;;;;;21.78;54.67;100233.56;4423127;32;34408;-83
2023/07/10 03:06:01;;;;;;;1.55;0.93;;;;;;;21.84;54.60;100230.34;4425042;32;33499;-83
2023/07/10 03:08:29;;;;;;;0.70;0.70;;;;;;;21.79;54.82;100228.06;4400882;32;34012;-83
2023/07/10 03:10:59;;;;;;;1.92;1.08;;;;;;;21.69;55.51;100225.28;4408280;32;32947;-83
2023/07/10 03:13:26;;;;;;;0.35;0.32;;;;;;;21.77;55.08;100232.69;4403705;32;31624;-83
2023/07/10 03:16:06;;;;;;;1.25;0.95;;;;;;;21.72;55.24;100219.66;4411037;32;32579;-83
2023/07/10 03:18:35;;;;;;;0.55;0.52;;;;;;;21.82;54.87;100227.78;4415303;32;34767;-83
2023/07/10 03:21:03;;;;;;;1.15;1.05;;;;;;;21.79;55.05;100227.19;4416511;32;34815;-83
2023/07/10 03:23:30;;;;;;;0.90;0.82;;;;;;;21.79;55.11;100229.88;4417287;32;32546;-83
2023/07/10 03:25:58;;;;;;;1.98;1.15;;;;;;;21.77;55.28;100226.47;4415002;32;34423;-83
2023/07/10 03:28:27;;;;;;;1.20;0.68;;;;;;;21.77;55.59;100231.84;4417311;32;35003;-84
2023/07/10 03:30:54;;;;;;;3.12;1.10;;;;;;;21.66;56.12;100230.06;4429410;32;33726;-83
2023/07/10 03:33:23;;;;;;;0.30;0.22;;;;;;;21.68;56.18;100228.94;4426404;32;32967;-83
2023/07/10 03:35:58;;;;;;;0.20;0.20;;;;;;;21.79;55.94;100221.81;4403279;32;32481;-83
2023/07/10 03:38:26;;;;;;;1.17;1.15;;;;;;;21.78;56.11;100228.19;4402220;32;32849;-83
2023/07/10 03:40:56;;;;;;;0.68;0.65;;;;;;;21.82;55.87;100224.25;4414741;32;33362;-83
2023/07/10 03:43:24;;;;;;;0.60;0.60;;;;;;;21.85;56.09;100224.00;4401982;32;33748;-83
2023/07/10 03:45:55;;;;;;;1.55;0.65;;;;;;;21.77;56.17;100213.03;4429080;32;34632;-83
2023/07/10 03:48:22;;;;;;;5.95;1.25;;;;;;;21.81;56.47;100218.03;4402257;32;33777;-83
2023/07/10 03:50:50;;;;;;;0.65;0.65;;;;;;;22.00;56.05;100201.19;4427787;32;34855;-83
2023/07/10 03:53:18;;;;;;;0.43;0.37;;;;;;;22.13;55.80;100209.97;4428170;32;32917;-83
2023/07/10 03:55:53;;;;;;;0.50;0.50;;;;;;;22.20;55.69;100213.81;4417960;32;31708;-83
2023/07/10 03:58:24;;;;;;;0.80;0.80;;;;;;;22.26;55.74;100204.38;4414647;32;33682;-83
2023/07/10 04:00:52;;;;;;;0.80;0.80;;;;;;;22.37;55.95;100211.53;4415426;32;33550;-83
2023/07/10 04:03:21;;;;;;;4.68;1.48;;;;;;;22.41;55.84;100212.97;4401829;32;33284;-83
2023/07/10 04:05:52;;;;;;;1.40;1.30;;;;;;;22.52;55.81;100214.72;4414332;32;33863;-83
2023/07/10 04:08:21;;;;;;;1.30;1.20;;;;;;;22.60;55.86;100214.91;4418487;32;32651;-83
2023/07/10 04:10:53;;;;;;;1.85;1.15;;;;;;;22.64;55.48;100208.25;4416520;32;33057;-83
2023/07/10 04:13:22;;;;;;;0.20;0.20;;;;;;;22.74;55.56;100212.72;4416118;32;33537;-83
2023/07/10 04:16:05;;;;;;;0.40;0.40;;;;;;;22.91;55.29;100213.09;4400744;32;33635;-83
2023/07/10 04:18:36;;;;;;;0.60;0.60;;;;;;;23.10;55.25;100207.78;4415205;32;34064;-83
2023/07/10 04:21:06;;;;;;;1.05;0.57;;;;;;;23.13;55.37;100212.91;4415048;32;32649;-83
2023/07/10 04:23:34;;;;;;;0.62;0.62;;;;;;;23.27;55.18;100218.88;4416056;32;33402;-83
2023/07/10 04:26:01;;;;;;;2.60;1.20;;;;;;;23.37;55.04;100208.97;4416997;32;33129;-83
2023/07/10 04:28:30;;;;;;;11.05;0.77;;;;;;;23.44;55.08;100215.50;4415766;32;33775;-83
2023/07/10 04:30:58;;;;;;;0.80;0.80;;;;;;;23.57;54.66;100223.34;4428146;32;34817;-83
2023/07/10 04:33:25;;;;;;;0.73;0.73;;;;;;;23.74;54.35;100217.28;4417400;32;34255;-83
2023/07/10 04:35:55;;;;;;;2.03;1.10;;;;;;;24.06;54.68;100211.56;4427137;32;34002;-83
2023/07/10 04:38:25;;;;;;;0.90;0.77;;;;;;;24.03;54.94;100217.28;4416127;32;34154;-83
2023/07/10 04:40:53;;;;;;;1.15;1.05;;;;;;;24.05;54.94;100209.03;4414660;32;34511;-83
2023/07/10 04:43:21;;;;;;;2.00;1.30;;;;;;;24.17;54.52;100205.19;4408847;32;33649;-83
2023/07/10 04:45:50;;;;;;;1.10;1.00;;;;;;;24.33;54.28;100207.28;4428073;32;34676;-83
2023/07/10 04:48:17;;;;;;;1.27;1.17;;;;;;;24.39;54.69;100204.03;4399958;32;33435;-83
2023/07/10 04:50:47;;;;;;;0.47;0.47;;;;;;;24.45;55.06;100198.03;4426088;32;32716;-83
2023/07/10 04:53:16;;;;;;;2.47;1.40;;;;;;;24.62;55.13;100202.69;4414222;32;34214;-83
2023/07/10 04:55:44;;;;;;;1.85;0.98;;;;;;;24.89;54.97;100209.13;4427523;32;33521;-83
2023/07/10 04:58:11;;;;;;;3.42;2.45;;;;;;;24.87;54.75;100201.16;4415664;32;34681;-84
2023/07/10 05:00:39;;;;;;;2.25;1.70;;;;;;;25.06;54.49;100211.00;4416110;32;34204;-83
2023/07/10 05:03:07;;;;;;;2.03;1.65;;;;;;;25.23;54.15;100212.94;4403853;32;32984;-83
2023/07/10 05:05:35;;;;;;;2.17;1.65;;;;;;;25.52;53.94;100206.50;4426051;32;33903;-83
2023/07/10 05:08:03;;;;;;;1.33;0.60;;;;;;;25.79;54.27;100208.31;4414353;32;33577;-84
2023/07/10 05:10:31;;;;;;;0.62;0.62;;;;;;;26.07;54.79;100206.37;4428357;32;34220;-83
2023/07/10 05:12:58;;;;;;;2.05;1.35;;;;;;;26.19;54.72;100209.66;4427368;32;33305;-83
2023/07/10 05:15:26;;;;;;;1.50;1.20;;;;;;;26.35;54.17;100209.78;4414040;32;33880;-84
2023/07/10 05:17:53;;;;;;;1.00;1.00;;;;;;;26.47;54.93;100213.09;4427918;32;33950;-83
2023/07/10 05:20:21;;;;;;;1.20;1.10;;;;;;;26.61;54.01;100214.38;4429325;32;34595;-84
2023/07/10 05:22:49;;;;;;;0.90;0.70;;;;;;;26.63;54.73;100215.91;4414570;32;33246;-84
2023/07/10 05:25:16;;;;;;;3.15;1.33;;;;;;;26.71;54.36;100209.69;4418026;32;32085;-83
2023/07/10 05:27:44;;;;;;;2.25;1.90;;;;;;;26.68;54.64;100210.88;4417226;32;34782;-83
2023/07/10 05:30:12;;;;;;;0.77;0.77;;;;;;;26.93;53.65;100200.16;4402293;32;31769;-83
2023/07/10 05:32:39;;;;;;;1.50;1.23;;;;;;;27.03;53.84;100209.00;4415226;32;34473;-83
2023/07/10 05:35:07;;;;;;;0.90;0.90;;;;;;;27.19;51.86;100203.66;4410539;32;32499;-84
2023/07/10 05:37:35;;;;;;;0.93;0.90;;;;;;;27.38;50.86;100212.53;4418137;32;34010;-83
2023/07/10 05:40:03;;;;;;;0.47;0.37;;;;;;;27.44;49.96;100211.88;4416428;32;34270;-83
2023/07/10 05:42:30;;;;;;;1.45;0.75;;;;;;;27.76;50.26;100208.41;4427024;32;33748;-83
2023/07/10 05:44:58;;;;;;;0.98;0.68;;;;;;;27.98;49.78;100210.44;4418592;32;33217;-83
2023/07/10 05:47:26;;;;;;;0.65;0.65;;;;;;;28.08;49.79;100215.72;4401998;32;32458;-84
2023/07/10 05:49:53;;;;;;;2.17;1.30;;;;;;;28.29;49.74;100207.88;4417788;32;32747;-83
2023/07/10 05:52:21;;;;;;;2.35;1.70;;;;;;;28.41;49.52;100210.28;4416881;32;33648;-84
2023/07/10 05:54:49;;;;;;;0.85;0.85;;;;;;;28.58;47.75;100211.94;4416640;32;34598;-84
2023/07/10 05:57:16;;;;;;;1.33;1.23;;;;;;;28.66;48.53;100217.34;4431544;32;34489;-84
2023/07/10 05:59:45;;;;;;;0.85;0.85;;;;;;;28.54;47.68;100208.72;4430285;32;34249;-84
2023/07/10 06:02:12;;;;;;;1.30;0.95;;;;;;;28.68;45.82;100218.03;4411358;32;33010;-84
2023/07/10 06:04:40;;;;;;;1.65;1.55;;;;;;;28.88;44.71;100212.19;4418442;32;33555;-83
2023/07/10 06:07:08;;;;;;;2.33;1.80;;;;;;;29.02;45.51;100211.50;4430262;32;33811;-83
2023/07/10 06:09:35;;;;;;;2.83;1.42;;;;;;;29.17;44.72;100207.00;4429832;32;33725;-83
2023/07/10 06:12:03;;;;;;;2.58;1.12;;;;;;;29.42;44.17;100206.87;4429088;32;33659;-83
2023/07/10 06:14:31;;;;;;;0.95;0.95;;;;;;;29.53;42.72;100201.00;4416193;32;34643;-83
2023/07/10 06:17:00;;;;;;;2.28;1.23;;;;;;;29.82;42.61;100198.47;4403234;32;33089;-83
2023/07/10 06:19:28;;;;;;;1.87;1.12;;;;;;;29.91;43.77;100201.09;4429643;32;34100;-83
2023/07/10 06:22:10;;;;;;;3.45;1.30;;;;;;;29.89;43.06;100195.84;4416474;32;34297;-83
2023/07/10 06:24:39;;;;;;;2.03;1.77;;;;;;;29.70;43.41;100191.75;4404366;32;33022;-84
2023/07/10 06:27:07;;;;;;;1.30;1.20;;;;;;;29.81;43.62;100191.31;4418430;32;33588;-84
2023/07/10 06:29:34;;;;;;;0.85;0.85;;;;;;;29.93;43.41;100196.34;4429189;32;34504;-84
2023/07/10 06:32:03;;;;;;;1.70;1.60;;;;;;;30.08;43.45;100191.78;4416106;32;33620;-84
2023/07/10 06:34:31;;;;;;;3.35;1.27;;;;;;;30.42;43.11;100190.47;4404041;32;32971;-84
2023/07/10 06:37:03;;;;;;;0.80;0.80;;;;;;;30.56;43.67;100197.81;4416485;32;33779;-84
2023/07/10 06:39:30;;;;;;;0.73;0.73;;;;;;;30.64;42.30;100183.25;4430548;32;34827;-84
2023/07/10 06:41:58;;;;;;;1.00;0.95;;;;;;;30.58;41.64;100184.84;4428987;32;33559;-84
2023/07/10 06:44:28;;;;;;;1.73;0.88;;;;;;;30.46;40.49;100186.34;4415416;32;33838;-84
2023/07/10 06:46:55;;;;;;;2.67;1.48;;;;;;;30.74;39.87;100183.84;4414109;32;34026;-84
2023/07/10 06:49:23;;;;;;;1.45;1.35;;;;;;;30.94;39.62;100184.09;4403221;32;34164;-84
2023/07/10 06:51:50;;;;;;;0.80;0.77;;;;;;;31.12;39.95;100187.28;4429662;32;33972;-84
2023/07/10 06:54:18;;;;;;;1.48;1.37;;;;;;;31.53;39.89;100184.84;4423840;32;34016;-84
2023/07/10 06:56:45;;;;;;;1.67;1.58;;;;;;;31.64;38.21;100179.91;4404166;32;32630;-84
2023/07/10 06:59:16;;;;;;;2.37;1.17;;;;;;;31.77;39.76;100174.59;4414677;32;35320;-84
2023/07/10 07:01:44;;;;;;;1.23;0.95;;;;;;;31.89;40.00;100180.38;4407243;32;32932;-84
2023/07/10 07:04:11;;;;;;;1.58;1.33;;;;;;;31.84;38.01;100175.50;4418480;32;33778;-84
2023/07/10 07:06:39;;;;;;;1.37;1.10;;;;;;;32.01;36.60;100178.81;4409973;32;33630;-84
2023/07/10 07:09:06;;;;;;;1.37;1.25;;;;;;;31.73;36.13;100174.12;4405053;32;34340;-84
2023/07/10 07:11:34;;;;;;;0.82;0.80;;;;;;;31.62;36.56;100171.94;4409395;32;34355;-84
2023/07/10 07:14:02;;;;;;;1.95;1.30;;;;;;;31.96;38.11;100178.56;4401667;32;32132;-84
2023/07/10 07:16:30;;;;;;;1.55;0.80;;;;;;;32.28;36.53;100169.75;4428194;32;33716;-84
2023/07/10 07:18:57;;;;;;;1.30;1.12;;;;;;;32.34;36.24;100171.72;4424529;32;34872;-84
2023/07/10 07:21:38;;;;;;;1.23;1.12;;;;;;;32.72;35.58;100168.63;4412797;32;31862;-84
2023/07/10 07:24:06;;;;;;;1.40;1.30;;;;;;;32.73;36.99;100161.25;4421334;32;34609;-84
2023/07/10 07:26:33;;;;;;;0.93;0.93;;;;;;;32.89;34.92;100161.75;4416131;32;34024;-84
2023/07/10 07:29:02;;;;;;;2.17;1.30;;;;;;;32.79;36.04;100168.66;4415855;32;34142;-84
2023/07/10 07:31:30;;;;;;;1.87;1.45;;;;;;;33.18;34.68;100175.38;4418493;32;32336;-84
2023/07/10 07:33:58;;;;;;;1.40;0.90;;;;;;;33.06;35.04;100170.50;4413981;32;32318;-84
2023/07/10 07:36:25;;;;;;;0.73;0.52;;;;;;;33.31;35.34;100165.31;4430073;32;34735;-84
2023/07/10 07:38:53;;;;;;;1.23;1.12;;;;;;;33.23;34.11;100165.47;4418244;32;33054;-84
2023/07/10 07:41:20;;;;;;;2.35;1.10;;;;;;;33.78;34.62;100163.53;4431340;32;33622;-84
2023/07/10 07:43:48;;;;;;;1.20;1.10;;;;;;;33.89;34.38;100159.31;4402771;32;33696;-84
2023/07/10 07:46:16;;;;;;;0.62;0.62;;;;;;;33.50;33.00;100163.69;4429333;32;33962;-84
2023/07/10 07:48:43;;;;;;;1.75;1.15;;;;;;;33.53;33.32;100159.72;4417535;32;33981;-85
2023/07/10 07:51:11;;;;;;;1.15;1.05;;;;;;;33.62;31.99;100158.47;4428908;32;34206;-84
2023/07/10 07:53:41;;;;;;;1.83;1.05;;;;;;;33.69;32.47;100164.78;4417408;32;33884;-84
2023/07/10 07:56:09;;;;;;;2.05;1.85;;;;;;;33.60;33.31;100166.03;4425924;32;32404;-84
2023/07/10 07:58:36;;;;;;;1.00;0.90;;;;;;;33.60;33.41;100160.56;4412924;32;33785;-84
2023/07/10 08:01:04;;;;;;;1.40;1.30;;;;;;;33.80;32.65;100150.44;4418386;32;34548;-84
2023/07/10 08:03:32;;;;;;;2.08;1.42;;;;;;;34.17;34.33;100148.16;4426382;32;34062;-84
2023/07/10 08:06:00;;;;;;;1.95;1.23;;;;;;;33.42;32.97;100152.91;4415965;32;34002;-84
2023/07/10 08:08:27;;;;;;;1.62;0.95;;;;;;;33.48;32.87;100154.03;4414778;32;33726;-84
2023/07/10 08:10:55;;;;;;;1.20;1.10;;;;;;;33.84;31.58;100148.97;4416208;32;33677;-84
2023/07/10 08:13:23;;;;;;;1.42;1.17;;;;;;;34.07;31.67;100150.50;4414631;32;33858;-84
2023/07/10 08:15:50;;;;;;;0.82;0.82;;;;;;;34.28;31.09;100139.31;4433419;32;33817;-84
2023/07/10 08:18:18;;;;;;;1.20;1.00;;;;;;;34.11;30.35;100146.28;4413958;32;33857;-85
2023/07/10 08:20:46;;;;;;;0.75;0.75;;;;;;;34.14;29.67;100145.87;4428358;32;33661;-84
2023/07/10 08:23:13;;;;;;;2.08;1.70;;;;;;;34.22;29.81;100137.41;4406584;32;32617;-84
2023/07/10 08:25:41;;;;;;;0.73;0.73;;;;;;;34.61;31.74;100128.31;4430347;32;33427;-84
2023/07/10 08:28:09;;;;;;;2.78;1.87;;;;;;;34.53;30.08;100128.53;4429999;32;34209;-84
2023/07/10 08:30:36;;;;;;;1.10;1.00;;;;;;;34.62;31.07;100132.72;4416060;32;34600;-84
2023/07/10 08:33:04;;;;;;;0.82;0.82;;;;;;;34.49;29.97;100120.94;4418007;32;33938;-84
2023/07/10 08:35:32;;;;;;;1.12;1.02;;;;;;;34.74;30.15;100121.91;4414319;32;33927;-84
2023/07/10 08:37:59;;;;;;;2.90;1.48;;;;;;;34.33;28.37;100123.06;4413041;32;32518;-84
2023/07/10 08:40:34;;;;;;;1.70;1.60;;;;;;;34.58;29.53;100122.41;4402053;32;33668;-84
2023/07/10 08:43:24;;;;;;;1.05;1.05;;;;;;;34.99;28.29;100111.09;4416696;32;34147;-84
2023/07/10 08:46:08;;;;;;;1.37;1.27;;;;;;;35.26;28.88;100121.91;4428502;32;32371;-84
2023/07/10 08:48:39;;;;;;;1.02;1.00;;;;;;;35.40;29.96;100112.50;4428796;32;34079;-84
2023/07/10 08:51:19;;;;;;;0.47;0.47;;;;;;;35.39;27.91;100106.19;4441963;32;33569;-85
2023/07/10 08:54:02;;;;;;;0.75;0.75;;;;;;;35.25;26.57;100117.47;4430789;32;33455;-84
2023/07/10 08:56:38;;;;;;;0.60;0.60;;;;;;;35.28;27.89;100123.38;4412153;32;33406;-84
2023/07/10 08:59:48;;;;;;;1.33;1.27;;;;;;;34.86;28.30;100108.37;4414170;32;34440;-84
2023/07/10 09:02:22;;;;;;;0.73;0.73;;;;;;;34.69;29.23;100116.22;4402213;32;33757;-84
2023/07/10 09:04:50;;;;;;;1.50;1.00;;;;;;;34.83;29.14;100109.62;4414072;32;32668;-84
2023/07/10 09:07:19;;;;;;;1.20;1.10;;;;;;;34.92;28.63;100109.38;4415519;32;33886;-84
2023/07/10 09:09:47;;;;;;;1.60;0.95;;;;;;;34.64;30.49;100113.28;4426989;32;34191;-84
2023/07/10 09:12:19;;;;;;;2.35;1.30;;;;;;;35.32;30.79;100110.03;4417958;32;33362;-84
2023/07/10 09:15:07;;;;;;;1.85;1.10;;;;;;;35.53;28.50;100106.13;4413256;32;33532;-84
2023/07/10 09:17:56;;;;;;;6.85;1.23;;;;;;;35.55;27.83;100109.47;4427022;32;34025;-84
2023/07/10 09:20:25;;;;;;;13.57;3.10;;;;;;;35.57;26.75;100099.97;4416212;32;34096;-84
2023/07/10 09:23:01;;;;;;;3.00;2.50;;;;;;;35.37;27.07;100094.59;4405040;32;32578;-85
2023/07/10 09:25:30;;;;;;;0.77;0.75;;;;;;;35.94;28.11;100096.47;4415786;32;34130;-84
2023/07/10 09:27:58;;;;;;;1.27;1.23;;;;;;;36.18;27.67;100090.16;4403818;32;34371;-84
2023/07/10 09:30:26;;;;;;;1.17;1.02;;;;;;;35.72;26.58;100087.81;4401810;32;32477;-84
2023/07/10 09:33:02;;;;;;;2.80;1.95;;;;;;;35.95;27.82;100092.72;4415148;32;32441;-84
2023/07/10 09:35:30;;;;;;;5.85;2.55;;;;;;;35.89;27.27;100078.78;4413026;32;33145;-84
2023/07/10 09:37:57;;;;;;;0.70;0.70;;;;;;;35.79;27.87;100078.41;4399486;32;33948;-84
2023/07/10 09:40:36;;;;;;;0.85;0.85;;;;;;;36.11;27.85;100081.97;4414012;32;34218;-84
2023/07/10 09:43:18;;;;;;;1.67;1.52;;;;;;;36.02;27.87;100075.06;4415977;32;33385;-84
2023/07/10 09:45:51;;;;;;;2.97;1.80;;;;;;;36.43;27.96;100073.63;4402985;32;32417;-84
2023/07/10 09:48:37;;;;;;;1.80;1.12;;;;;;;37.04;27.66;100078.16;4414768;32;35137;-84
2023/07/10 09:51:09;;;;;;;1.33;1.02;;;;;;;36.72;27.00;100069.22;4404237;32;32707;-85
2023/07/10 09:53:45;;;;;;;1.27;1.17;;;;;;;36.67;26.66;100069.09;4419608;32;33322;-85
2023/07/10 09:56:24;;;;;;;2.60;1.45;;;;;;;36.25;27.54;100071.66;4413637;32;33854;-84
2023/07/10 09:58:54;;;;;;;1.23;1.12;;;;;;;36.33;26.70;100060.38;4415224;32;32547;-85
2023/07/10 10:01:29;;;;;;;3.47;1.48;;;;;;;36.29;26.64;100067.37;4428024;32;34667;-84
2023/07/10 10:04:00;;;;;;;0.90;0.85;;;;;;;36.22;26.65;100052.88;4418906;32;32103;-84
2023/07/10 10:06:29;;;;;;;1.53;1.43;;;;;;;36.35;26.23;100049.12;4404544;32;32661;-84
2023/07/10 10:08:57;;;;;;;1.48;1.37;;;;;;;36.50;25.31;100051.53;4413066;32;33244;-84
2023/07/10 10:11:33;;;;;;;0.50;0.50;;;;;;;36.84;26.12;100053.63;4424745;32;34198;-84
2023/07/10 10:14:04;;;;;;;4.28;1.80;;;;;;;36.81;25.74;100050.50;4406482;32;33113;-84
2023/07/10 10:16:55;;;;;;;1.30;1.20;;;;;;;37.07;24.96;100047.37;4413049;32;33099;-84
2023/07/10 10:19:35;;;;;;;2.83;1.12;;;;;;;37.19;24.53;100041.91;4417902;32;34155;-84
2023/07/10 10:22:13;;;;;;;5.05;1.80;;;;;;;37.39;25.10;100038.88;4419868;32;32665;-84
2023/07/10 10:24:42;;;;;;;2.47;0.95;;;;;;;37.50;24.51;100032.53;4418769;32;32103;-84
2023/07/10 10:27:18;;;;;;;1.30;0.98;;;;;;;37.77;25.69;100032.91;4415493;32;33428;-84
2023/07/10 10:29:55;;;;;;;1.15;1.15;;;;;;;37.87;24.56;100027.66;4429148;32;33661;-84
2023/07/10 10:32:35;;;;;;;1.15;1.05;;;;;;;37.75;25.65;100015.78;4416048;32;32683;-84
2023/07/10 10:35:09;;;;;;;1.48;0.93;;;;;;;38.04;23.11;100022.28;4428268;32;33784;-84
2023/07/10 10:37:58;;;;;;;1.37;1.25;;;;;;;37.99;23.70;100022.16;4415579;32;33996;-84
2023/07/10 10:41:06;;;;;;;2.47;2.00;;;;;;;37.82;23.53;100013.75;4430715;32;34743;-84
2023/07/10 10:43:48;;;;;;;1.33;1.23;;;;;;;38.27;25.61;100020.53;4415666;32;34352;-84
2023/07/10 10:46:50;;;;;;;2.08;1.42;;;;;;;37.98;24.34;100027.91;4419303;32;33592;-84
2023/07/10 10:49:23;;;;;;;0.55;0.55;;;;;;;38.14;23.95;100018.91;4416499;32;33685;-84
2023/07/10 10:52:23;;;;;;;0.90;0.90;;;;;;;38.24;24.72;100012.75;4414810;32;33464;-84
2023/07/10 10:55:00;;;;;;;1.37;0.90;;;;;;;38.13;24.48;100017.22;4403839;32;34848;-84
2023/07/10 10:57:44;;;;;;;1.92;1.08;;;;;;;38.24;24.94;100012.75;4412328;32;32985;-84
2023/07/10 11:00:23;;;;;;;1.42;0.88;;;;;;;38.15;23.83;100013.13;4418856;32;32454;-84
2023/07/10 11:02:57;;;;;;;1.42;1.33;;;;;;;37.73;23.67;100017.94;4416435;32;33481;-84
2023/07/10 11:05:45;;;;;;;3.35;1.73;;;;;;;38.25;24.64;100012.50;4429183;32;33730;-84
2023/07/10 11:08:24;;;;;;;1.25;1.15;;;;;;;38.25;24.22;100014.44;4418224;32;33964;-84
2023/07/10 11:10:55;;;;;;;1.25;1.15;;;;;;;38.31;25.08;100003.28;4416798;32;34608;-84
2023/07/10 11:13:31;;;;;;;1.80;1.65;;;;;;;38.40;24.07;100007.34;4418078;32;33589;-84
2023/07/10 11:16:04;;;;;;;2.15;1.30;;;;;;;38.06;23.98;100003.56;4429653;32;34178;-84
2023/07/10 11:18:33;;;;;;;1.75;0.85;;;;;;;38.25;23.29;100006.16;4410664;32;33153;-84
2023/07/10 11:21:02;;;;;;;1.52;1.42;;;;;;;37.90;22.93;99999.63;4404939;32;32398;-84
2023/07/10 11:23:45;;;;;;;2.60;1.45;;;;;;;38.11;23.67;100002.84;4434989;32;34695;-84
2023/07/10 11:26:24;;;;;;;1.67;1.17;;;;;;;38.45;23.97;99991.97;4417697;32;33283;-85
2023/07/10 11:28:53;;;;;;;1.27;0.95;;;;;;;38.47;23.07;99989.84;4428666;32;33160;-84
2023/07/10 11:31:40;;;;;;;2.90;1.40;;;;;;;38.64;24.39;99988.78;4424936;32;33267;-84
2023/07/10 11:34:32;;;;;;;1.70;1.60;;;;;;;38.63;22.90;99989.03;4417473;32;33215;-84
2023/07/10 11:37:00;;;;;;;2.83;1.15;;;;;;;39.00;23.28;99978.44;4416670;32;34210;-84
2023/07/10 11:39:36;;;;;;;1.98;0.98;;;;;;;38.93;21.16;99980.50;4433460;32;32411;-84
2023/07/10 11:42:13;;;;;;;1.25;1.15;;;;;;;38.89;20.53;99982.12;4416012;32;32350;-84